Time;durP1;ratioP1;P1;durP2;ratioP2;P2;SDS_P1;SDS_P2;PMS_P1;PMS_P2;Temp;Humidity;BMP_temperature;BMP_pressure;BME280_temperature;BME280_humidity;BME280_pressure;Samples;Min_cycle;Max_cycle;Signal;HPM_P1;HPM_P2
2023/05/16 00:01:25;;;;;;;2.92;1.88;;;20.00;77.00;;;;;;5012918;28;20050;-32
2023/05/16 00:03:52;;;;;;;3.50;1.67;;;19.50;76.80;;;;;;5012491;28;20135;-31
2023/05/16 00:06:21;;;;;;;3.67;1.73;;;19.80;57.40;;;;;;5012557;28;20521;-31
2023/05/16 00:08:48;;;;;;;3.53;1.77;;;;;;;;;;5012189;28;20049;-31
2023/05/16 00:11:16;;;;;;;3.53;1.65;;;18.90;64.80;;;;;;5012381;28;20064;-31
2023/05/16 00:13:43;;;;;;;5.38;2.40;;;19.70;77.10;;;;;;5011894;28;20054;-31
2023/05/16 00:16:10;;;;;;;4.53;1.83;;;20.30;77.40;;;;;;5012608;28;20153;-31
2023/05/16 00:18:37;;;;;;;3.70;1.90;;;19.70;77.70;;;;;;5012610;28;20137;-31
2023/05/16 00:21:04;;;;;;;3.15;1.83;;;;;;;;;;5012126;28;20049;-30
2023/05/16 00:23:33;;;;;;;3.95;1.85;;;19.60;76.80;;;;;;5011931;28;20050;-31
2023/05/16 00:26:00;;;;;;;4.60;1.70;;;;;;;;;;5012156;28;20265;-30
2023/05/16 00:28:27;;;;;;;5.45;1.80;;;;;;;;;;5012071;28;20128;-31
2023/05/16 00:30:54;;;;;;;2.92;1.50;;;;;;;;;;5012033;28;20048;-30
2023/05/16 00:33:21;;;;;;;3.85;1.60;;;19.30;76.60;;;;;;5011999;28;20050;-31
2023/05/16 00:35:48;;;;;;;4.38;1.80;;;19.20;76.90;;;;;;5012114;28;20129;-31
2023/05/16 00:38:14;;;;;;;5.30;1.80;;;20.00;75.10;;;;;;5012240;28;20046;-31
2023/05/16 00:40:42;;;;;;;4.50;1.83;;;18.60;76.20;;;;;;5011748;28;20470;-31
2023/05/16 00:43:09;;;;;;;2.65;1.38;;;20.00;77.00;;;;;;5011392;28;20052;-31
2023/05/16 00:45:36;;;;;;;4.97;1.70;;;18.50;63.60;;;;;;5011939;28;20129;-31
2023/05/16 00:48:03;;;;;;;3.70;1.45;;;18.60;73.80;;;;;;5012041;28;20056;-31
2023/05/16 00:50:30;;;;;;;4.38;1.70;;;19.20;63.40;;;;;;5011921;28;20058;-31
2023/05/16 00:52:57;;;;;;;3.05;1.58;;;;;;;;;;5011612;28;20129;-30
2023/05/16 00:55:24;;;;;;;4.68;1.73;;;19.40;77.00;;;;;;5011961;28;20129;-31
2023/05/16 00:57:52;;;;;;;3.88;1.60;;;19.60;57.10;;;;;;5011764;28;20050;-30
2023/05/16 01:00:19;;;;;;;4.22;1.67;;;;;;;;;;5011946;28;20046;-30
2023/05/16 01:02:46;;;;;;;4.05;1.52;;;20.60;77.70;;;;;;5011505;28;20045;-31
2023/05/16 01:05:13;;;;;;;4.28;1.70;;;;;;;;;;5011850;28;20042;-31
2023/05/16 01:07:40;;;;;;;3.30;1.60;;;;;;;;;;5011825;28;20141;-31
2023/05/16 01:10:08;;;;;;;3.60;1.60;;;20.00;65.40;;;;;;5011416;28;20141;-31
2023/05/16 01:12:38;;;;;;;3.28;1.90;;;19.50;57.10;;;;;;5011294;28;20112;-31
2023/05/16 01:15:08;;;;;;;3.95;1.52;;;18.90;76.80;;;;;;5011462;28;20129;-31
2023/05/16 01:17:38;;;;;;;3.75;1.60;;;19.60;57.10;;;;;;5011853;28;20058;-31
2023/05/16 01:20:13;;;;;;;3.88;1.40;;;19.50;57.10;;;;;;5011517;28;20153;-31
2023/05/16 01:22:52;;;;;;;2.92;1.45;;;19.50;57.10;;;;;;5011495;28;20050;-31
2023/05/16 01:25:27;;;;;;;4.25;1.85;;;19.90;77.90;;;;;;5015648;28;20053;-31
2023/05/16 01:27:55;;;;;;;3.80;1.55;;;19.20;72.80;;;;;;5015226;28;20052;-31
2023/05/16 01:30:22;;;;;;;2.70;1.48;;;19.80;71.30;;;;;;5015423;28;20129;-31
2023/05/16 01:32:50;;;;;;;3.70;1.30;;;20.10;77.50;;;;;;5014928;28;20128;-31
2023/05/16 01:35:17;;;;;;;4.38;1.80;;;19.30;71.30;;;;;;5015457;28;20054;-31
2023/05/16 01:37:46;;;;;;;4.82;1.63;;;19.50;57.00;;;;;;5014382;28;20078;-30
2023/05/16 01:40:17;;;;;;;3.40;1.80;;;19.40;57.00;;;;;;5015248;28;20141;-31
2023/05/16 01:42:45;;;;;;;2.70;1.42;;;19.40;57.00;;;;;;5014648;28;20052;-31
2023/05/16 01:45:16;;;;;;;5.72;1.52;;;20.10;77.30;;;;;;5014595;28;20061;-31
2023/05/16 01:47:44;;;;;;;5.60;1.70;;;19.10;76.40;;;;;;5015275;28;20133;-31
2023/05/16 01:50:14;;;;;;;3.15;1.83;;;19.80;76.80;;;;;;5015371;28;20124;-31
2023/05/16 01:52:44;;;;;;;3.63;1.70;;;19.40;56.90;;;;;;5014866;28;20049;-31
2023/05/16 01:55:21;;;;;;;3.15;1.50;;;19.20;61.40;;;;;;5015261;28;20144;-31
2023/05/16 01:57:48;;;;;;;4.32;1.90;;;;;;;;;;5014816;28;20132;-31
2023/05/16 02:00:17;;;;;;;3.60;1.60;;;19.40;77.40;;;;;;5014746;28;20137;-31
2023/05/16 02:02:43;;;;;;;5.15;1.70;;;19.90;76.80;;;;;;5014714;28;20130;-31
2023/05/16 02:05:10;;;;;;;5.78;1.70;;;19.70;77.80;;;;;;5014781;28;20585;-31
2023/05/16 02:07:37;;;;;;;4.70;1.75;;;;;;;;;;5014837;28;20129;-31
2023/05/16 02:10:05;;;;;;;3.08;1.60;;;18.60;76.20;;;;;;5014495;28;20141;-31
2023/05/16 02:12:31;;;;;;;4.72;1.58;;;19.60;77.10;;;;;;5014316;28;20100;-31
2023/05/16 02:14:58;;;;;;;1.85;1.23;;;18.40;76.60;;;;;;5014509;28;20402;-31
2023/05/16 02:17:26;;;;;;;3.95;1.63;;;19.30;56.80;;;;;;5014834;28;20141;-30
2023/05/16 02:19:53;;;;;;;5.03;1.60;;;;;;;;;;5014545;28;20431;-30
2023/05/16 02:22:20;;;;;;;4.45;1.55;;;19.60;77.70;;;;;;5014108;28;20426;-31
2023/05/16 02:24:46;;;;;;;3.92;1.63;;;19.00;76.50;;;;;;5014364;28;20133;-31
2023/05/16 02:27:14;;;;;;;3.00;1.35;;;;;;;;;;5014585;28;20137;-31
2023/05/16 02:29:40;;;;;;;3.03;1.55;;;19.50;76.80;;;;;;5014356;28;20128;-31
2023/05/16 02:32:07;;;;;;;4.22;1.80;;;18.40;57.90;;;;;;4996764;28;20726;-31
2023/05/16 02:34:35;;;;;;;5.22;1.63;;;19.50;76.80;;;;;;5013025;28;20124;-31
2023/05/16 02:37:02;;;;;;;4.15;1.40;;;18.20;76.40;;;;;;5013350;28;20132;-31
2023/05/16 02:39:30;;;;;;;4.75;1.60;;;18.60;76.30;;;;;;5013882;28;20133;-31
2023/05/16 02:41:57;;;;;;;3.53;1.23;;;19.40;72.10;;;;;;4996434;28;20057;-31
2023/05/16 02:44:23;;;;;;;3.50;1.40;;;19.80;77.80;;;;;;5013550;28;20125;-31
2023/05/16 02:46:50;;;;;;;6.35;1.63;;;19.60;68.50;;;;;;5013942;28;20129;-31
2023/05/16 02:49:17;;;;;;;2.80;1.17;;;;;;;;;;5013869;28;20136;-31
2023/05/16 02:51:45;;;;;;;3.70;1.35;;;19.30;56.80;;;;;;5013900;28;20050;-30
2023/05/16 02:54:12;;;;;;;2.50;1.23;;;;;;;;;;5013277;28;20133;-30
2023/05/16 02:56:39;;;;;;;2.72;1.48;;;20.00;77.00;;;;;;5013902;28;20138;-31
2023/05/16 02:59:06;;;;;;;3.58;1.45;;;;;;;;;;5013457;28;20465;-31
2023/05/16 03:01:33;;;;;;;3.70;1.42;;;20.20;74.80;;;;;;5013776;28;20133;-31
2023/05/16 03:03:59;;;;;;;4.50;1.48;;;20.30;77.20;;;;;;5013735;28;20049;-31
2023/05/16 03:06:26;;;;;;;2.97;1.40;;;;;;;;;;4996186;28;20582;-30
2023/05/16 03:08:54;;;;;;;1.73;1.25;;;19.40;77.60;;;;;;5013828;28;20463;-31
2023/05/16 03:11:23;;;;;;;3.55;1.40;;;19.80;62.60;;;;;;5013604;28;20132;-31
2023/05/16 03:13:50;;;;;;;3.22;1.55;;;19.20;76.60;;;;;;5013117;28;20042;-31
2023/05/16 03:16:17;;;;;;;3.67;1.23;;;;;;;;;;5013618;28;20133;-30
2023/05/16 03:18:44;;;;;;;3.60;1.33;;;18.70;76.30;;;;;;5013315;28;20052;-31
2023/05/16 03:21:11;;;;;;;4.25;1.40;;;;;;;;;;5013155;28;20057;-30
2023/05/16 03:23:38;;;;;;;2.88;1.20;;;18.70;75.60;;;;;;5012971;28;20072;-31
2023/05/16 03:26:06;;;;;;;2.53;1.10;;;18.90;59.90;;;;;;5013298;28;20136;-31
2023/05/16 03:28:33;;;;;;;4.03;1.30;;;20.00;77.00;;;;;;5012882;28;20050;-31
2023/05/16 03:31:00;;;;;;;2.47;1.17;;;19.10;63.30;;;;;;5013207;28;20060;-31
2023/05/16 03:33:26;;;;;;;2.65;1.30;;;19.40;77.60;;;;;;5012791;28;20050;-31
2023/05/16 03:35:53;;;;;;;3.17;1.20;;;;;;;;;;5012357;28;20053;-30
2023/05/16 03:38:20;;;;;;;3.05;1.20;;;19.60;77.80;;;;;;5013094;28;20046;-31
2023/05/16 03:40:48;;;;;;;4.60;1.50;;;;;;;;;;5013260;28;20129;-31
2023/05/16 03:43:16;;;;;;;4.85;1.40;;;19.10;56.70;;;;;;5012000;28;20056;-31
2023/05/16 03:45:43;;;;;;;3.53;1.40;;;18.90;76.40;;;;;;5012670;28;20115;-31
2023/05/16 03:48:10;;;;;;;5.10;1.40;;;;;;;;;;5012903;28;20052;-31
2023/05/16 03:50:37;;;;;;;3.55;1.40;;;19.10;76.50;;;;;;5013059;28;20137;-31
2023/05/16 03:53:04;;;;;;;3.33;1.42;;;19.10;77.50;;;;;;5012402;28;20353;-31
2023/05/16 03:55:31;;;;;;;4.47;1.20;;;19.00;76.90;;;;;;5012980;28;20056;-31
2023/05/16 03:57:57;;;;;;;3.25;1.20;;;19.20;77.10;;;;;;5012702;28;20499;-31
2023/05/16 04:00:26;;;;;;;4.30;1.65;;;19.50;57.00;;;;;;5012426;28;20046;-31
2023/05/16 04:02:53;;;;;;;2.03;1.10;;;19.80;77.80;;;;;;5012275;28;20398;-31
2023/05/16 04:05:20;;;;;;;4.85;1.40;;;18.80;76.90;;;;;;5012722;28;20132;-31
2023/05/16 04:07:47;;;;;;;2.53;1.30;;;;;;;;;;5012550;28;20104;-31
2023/05/16 04:10:14;;;;;;;3.15;1.25;;;19.20;76.60;;;;;;5012525;28;20120;-31
2023/05/16 04:12:41;;;;;;;2.88;1.30;;;;;;;;;;5012493;28;20048;-30
2023/05/16 04:15:08;;;;;;;4.00;1.40;;;19.10;76.60;;;;;;5012356;28;20141;-31
2023/05/16 04:17:36;;;;;;;3.28;1.05;;;19.20;72.00;;;;;;5012183;28;20560;-31
2023/05/16 04:20:04;;;;;;;4.47;1.48;;;19.40;70.70;;;;;;5012470;28;20052;-31
2023/05/16 04:22:30;;;;;;;3.05;1.20;;;19.40;77.80;;;;;;5012089;28;20553;-31
2023/05/16 04:24:57;;;;;;;6.15;1.50;;;18.80;64.70;;;;;;5012043;28;20053;-31
2023/05/16 04:27:25;;;;;;;3.80;1.30;;;19.20;77.10;;;;;;5012130;28;20125;-31
2023/05/16 04:29:52;;;;;;;3.03;1.52;;;19.00;76.90;;;;;;5011969;28;20507;-31
2023/05/16 04:32:19;;;;;;;3.33;1.40;;;19.30;76.70;;;;;;5011887;28;20646;-31
2023/05/16 04:34:48;;;;;;;3.60;1.33;;;19.00;76.60;;;;;;5012149;28;20054;-31
2023/05/16 04:37:16;;;;;;;2.35;1.20;;;;;;;;;;5011692;28;20049;-30
2023/05/16 04:39:42;;;;;;;2.08;1.08;;;18.50;76.30;;;;;;5011805;28;20042;-31
2023/05/16 04:42:09;;;;;;;3.50;1.40;;;18.90;76.50;;;;;;5011838;28;20050;-31
2023/05/16 04:44:36;;;;;;;4.28;1.25;;;;;;;;;;5012128;28;20137;-31
2023/05/16 04:47:04;;;;;;;3.08;1.10;;;;;;;;;;5012065;28;20125;-31
2023/05/16 04:49:31;;;;;;;3.58;1.30;;;19.10;65.60;;;;;;5012038;28;20510;-31
2023/05/16 04:51:59;;;;;;;3.92;1.30;;;18.90;56.60;;;;;;5011728;28;20048;-30
2023/05/16 04:54:26;;;;;;;2.38;1.00;;;;;;;;;;5011480;28;20134;-30
2023/05/16 04:56:53;;;;;;;4.30;1.77;;;;;;;;;;5011944;28;20085;-31
2023/05/16 04:59:20;;;;;;;5.75;1.30;;;;;;;;;;5014862;28;20133;-30
2023/05/16 05:01:47;;;;;;;3.08;1.30;;;19.80;76.80;;;;;;5015751;28;20048;-31
2023/05/16 05:04:14;;;;;;;3.20;1.30;;;19.10;76.80;;;;;;5015770;28;20129;-31
2023/05/16 05:06:41;;;;;;;2.47;1.00;;;;;;;;;;5015801;28;20041;-31
2023/05/16 05:09:09;;;;;;;3.83;1.27;;;18.70;76.70;;;;;;5015684;28;20414;-31
2023/05/16 05:11:36;;;;;;;3.85;1.30;;;;;;;;;;5015713;28;20095;-30
2023/05/16 05:14:04;;;;;;;2.88;1.30;;;18.30;76.90;;;;;;5015789;28;20104;-31
2023/05/16 05:16:31;;;;;;;2.60;1.10;;;;;;;;;;5015448;28;20475;-30
2023/05/16 05:18:58;;;;;;;3.97;1.33;;;18.60;62.20;;;;;;5015829;28;20120;-31
2023/05/16 05:21:25;;;;;;;2.60;1.10;;;18.90;60.10;;;;;;5015616;28;20136;-31
2023/05/16 05:23:51;;;;;;;3.35;1.23;;;19.40;77.50;;;;;;5014668;28;20042;-31
2023/05/16 05:26:21;;;;;;;2.45;1.23;;;18.60;76.70;;;;;;5015358;28;20136;-31
2023/05/16 05:28:48;;;;;;;2.90;1.15;;;18.40;76.00;;;;;;5015321;28;20459;-31
2023/05/16 05:31:15;;;;;;;4.22;1.33;;;;;;;;;;5015519;28;20137;-30
2023/05/16 05:33:42;;;;;;;2.53;1.10;;;19.90;76.80;;;;;;5015346;28;20428;-31
2023/05/16 05:36:09;;;;;;;3.42;1.27;;;;;;;;;;5015163;28;20049;-31
2023/05/16 05:38:36;;;;;;;4.40;1.30;;;19.20;77.30;;;;;;5014756;28;20046;-31
2023/05/16 05:41:03;;;;;;;2.05;1.02;;;;;;;;;;5015395;28;20049;-30
2023/05/16 05:43:31;;;;;;;3.58;1.27;;;18.50;76.00;;;;;;5014866;28;20533;-31
2023/05/16 05:45:58;;;;;;;3.35;1.20;;;18.80;76.10;;;;;;5015223;28;20050;-31
2023/05/16 05:48:25;;;;;;;3.05;1.10;;;18.50;66.50;;;;;;5015251;28;20084;-31
2023/05/16 05:50:52;;;;;;;3.05;1.27;;;;;;;;;;5014751;28;20142;-31
2023/05/16 05:53:19;;;;;;;3.45;1.40;;;19.90;76.80;;;;;;5014502;28;20537;-31
2023/05/16 05:55:46;;;;;;;4.60;1.50;;;;;;;;;;5015010;28;20133;-30
2023/05/16 05:58:13;;;;;;;3.35;1.35;;;18.30;75.80;;;;;;5015016;28;20053;-31
2023/05/16 06:00:41;;;;;;;5.07;1.50;;;17.30;75.20;;;;;;5014749;28;20121;-31
2023/05/16 06:03:07;;;;;;;3.45;1.33;;;19.40;76.80;;;;;;5014489;28;20050;-31
2023/05/16 06:05:34;;;;;;;2.42;1.30;;;18.60;68.20;;;;;;5014955;28;20128;-31
2023/05/16 06:08:01;;;;;;;3.92;1.35;;;19.70;76.40;;;;;;5014462;28;20133;-31
2023/05/16 06:10:28;;;;;;;4.75;1.42;;;;;;;;;;5014390;28;20154;-30
2023/05/16 06:12:55;;;;;;;3.63;1.20;;;19.10;76.50;;;;;;5014740;28;20045;-31
2023/05/16 06:15:22;;;;;;;4.75;1.30;;;18.30;76.10;;;;;;4997009;28;20050;-31
2023/05/16 06:17:50;;;;;;;3.67;1.30;;;19.10;57.40;;;;;;5008789;28;20518;-31
2023/05/16 06:20:17;;;;;;;3.33;1.15;;;;;;;;;;4996691;28;20064;-30
2023/05/16 06:22:44;;;;;;;3.17;1.15;;;;;;;;;;5013206;28;20525;-31
2023/05/16 06:25:11;;;;;;;4.57;1.40;;;18.40;56.70;;;;;;5013999;28;20402;-31
2023/05/16 06:27:37;;;;;;;2.80;1.27;;;17.60;75.40;;;;;;5013896;28;20046;-31
2023/05/16 06:30:05;;;;;;;4.28;1.40;;;18.70;56.60;;;;;;5014095;28;20651;-31
2023/05/16 06:32:32;;;;;;;10.82;2.03;;;18.90;76.50;;;;;;5013870;28;20067;-32
2023/05/16 06:35:00;;;;;;;4.50;1.13;;;18.80;56.60;;;;;;5013717;28;20046;-31
2023/05/16 06:37:27;;;;;;;3.00;1.38;;;;;;;;;;5010382;28;20069;-31
2023/05/16 06:39:54;;;;;;;3.28;1.10;;;19.20;76.20;;;;;;5011590;28;20121;-31
2023/05/16 06:42:21;;;;;;;1.90;1.00;;;;;;;;;;5011377;28;20085;-31
2023/05/16 06:44:48;;;;;;;1.60;1.00;;;;;;;;;;5008595;28;20070;-31
2023/05/16 06:47:15;;;;;;;5.20;1.35;;;;;;;;;;5012821;28;20081;-31
2023/05/16 06:49:42;;;;;;;3.45;1.33;;;19.90;76.40;;;;;;5013511;28;20132;-31
2023/05/16 06:52:10;;;;;;;2.90;1.10;;;18.30;76.00;;;;;;4994700;28;20467;-31
2023/05/16 06:54:37;;;;;;;3.05;1.08;;;18.70;76.20;;;;;;4995924;28;20046;-31
2023/05/16 06:57:05;;;;;;;4.25;1.20;;;18.80;64.00;;;;;;5013254;28;20057;-31
2023/05/16 06:59:33;;;;;;;5.20;1.20;;;18.60;61.60;;;;;;5013934;28;20404;-31
2023/05/16 07:02:00;;;;;;;1.98;1.00;;;;;;;;;;5014092;28;20049;-31
2023/05/16 07:04:26;;;;;;;3.03;1.38;;;18.20;76.40;;;;;;5013479;28;20046;-31
2023/05/16 07:06:53;;;;;;;3.05;1.20;;;;;;;;;;5013572;28;20506;-31
2023/05/16 07:09:22;;;;;;;2.55;1.02;;;18.90;71.90;;;;;;5013403;28;20418;-31
2023/05/16 07:11:48;;;;;;;4.15;1.33;;;18.30;75.60;;;;;;5013157;28;20046;-32
2023/05/16 07:14:15;;;;;;;3.60;1.15;;;18.80;76.70;;;;;;5013359;28;20048;-32
2023/05/16 07:16:42;;;;;;;2.50;1.27;;;;;;;;;;5013658;28;20073;-30
2023/05/16 07:19:09;;;;;;;3.17;1.15;;;18.50;75.60;;;;;;5013162;28;20054;-31
2023/05/16 07:21:36;;;;;;;3.40;1.13;;;18.60;75.60;;;;;;5012987;28;20152;-31
2023/05/16 07:24:03;;;;;;;3.28;1.30;;;;;;;;;;4995487;28;20054;-31
2023/05/16 07:26:31;;;;;;;3.08;1.15;;;18.10;59.50;;;;;;5013117;28;20114;-31
2023/05/16 07:28:58;;;;;;;2.75;1.20;;;;;;;;;;4995573;28;20133;-31
2023/05/16 07:31:25;;;;;;;3.53;1.40;;;18.20;75.20;;;;;;5013404;28;20509;-31
2023/05/16 07:33:52;;;;;;;6.00;1.27;;;19.00;76.30;;;;;;5013285;28;20125;-31
2023/05/16 07:36:20;;;;;;;2.15;1.20;;;;;;;;;;4995322;28;20509;-30
2023/05/16 07:38:46;;;;;;;1.63;1.10;;;17.90;74.40;;;;;;5013299;28;20060;-31
2023/05/16 07:41:13;;;;;;;2.88;1.02;;;19.40;65.10;;;;;;5012759;28;20081;-31
2023/05/16 07:43:41;;;;;;;3.63;1.30;;;19.70;74.80;;;;;;5012781;28;20052;-31
2023/05/16 07:46:08;;;;;;;3.00;1.10;;;19.80;73.80;;;;;;5012387;28;20049;-31
2023/05/16 07:48:34;;;;;;;2.38;1.30;;;20.00;73.80;;;;;;5012089;28;20129;-31
2023/05/16 07:51:01;;;;;;;1.42;1.00;;;;;;;;;;5012809;28;20140;-31
2023/05/16 07:53:28;;;;;;;1.55;1.00;;;19.50;73.00;;;;;;5011117;28;20534;-31
2023/05/16 07:55:55;;;;;;;2.65;1.10;;;19.70;57.70;;;;;;5008988;28;20116;-31
2023/05/16 07:58:22;;;;;;;2.45;1.20;;;18.90;66.20;;;;;;5012411;28;20550;-31
2023/05/16 08:00:50;;;;;;;3.00;1.27;;;19.50;74.50;;;;;;5012223;28;20477;-31
2023/05/16 08:03:16;;;;;;;7.72;1.50;;;19.80;75.20;;;;;;5011277;28;20049;-31
2023/05/16 08:05:43;;;;;;;2.83;1.00;;;20.70;74.80;;;;;;5011976;28;20121;-31
2023/05/16 08:08:10;;;;;;;1.60;0.93;;;20.00;74.60;;;;;;5010992;28;20046;-31
2023/05/16 08:10:37;;;;;;;3.13;1.05;;;21.20;75.00;;;;;;5010198;28;20125;-31
2023/05/16 08:13:04;;;;;;;1.35;0.90;;;;;;;;;;4993115;28;20137;-31
2023/05/16 08:15:31;;;;;;;3.35;1.00;;;;;;;;;;5011351;28;20073;-31
2023/05/16 08:18:00;;;;;;;2.42;0.90;;;21.80;57.70;;;;;;5008714;28;20123;-31
2023/05/16 08:20:26;;;;;;;2.78;1.27;;;19.70;72.20;;;;;;5012085;28;20099;-31
2023/05/16 08:22:53;;;;;;;1.80;0.90;;;20.80;75.10;;;;;;5011992;28;20096;-31
2023/05/16 08:25:20;;;;;;;2.70;1.42;;;;;;;;;;5012087;28;20058;-30
2023/05/16 08:27:49;;;;;;;1.83;0.82;;;20.00;73.90;;;;;;4996000;28;20133;-31
2023/05/16 08:30:16;;;;;;;3.60;1.10;;;20.30;74.90;;;;;;4996708;28;20054;-31
2023/05/16 08:32:43;;;;;;;3.30;1.20;;;20.40;66.90;;;;;;5008786;28;20129;-31
2023/05/16 08:35:11;;;;;;;4.00;1.48;;;19.90;73.70;;;;;;5001287;28;20050;-31
2023/05/16 08:37:38;;;;;;;2.58;1.10;;;20.70;73.90;;;;;;5003055;28;20073;-31
2023/05/16 08:40:07;;;;;;;2.85;1.40;;;20.90;73.70;;;;;;5011828;28;20073;-31
2023/05/16 08:42:35;;;;;;;3.92;1.50;;;21.60;55.90;;;;;;5011986;28;20100;-31
2023/05/16 08:45:01;;;;;;;3.17;1.00;;;19.80;73.00;;;;;;5002277;28;20062;-31
2023/05/16 08:47:29;;;;;;;2.58;1.33;;;21.70;74.10;;;;;;5009459;28;20518;-31
2023/05/16 08:49:56;;;;;;;2.97;1.10;;;20.50;73.60;;;;;;5012250;28;20495;-31
2023/05/16 08:52:27;;;;;;;3.17;1.10;;;21.20;70.20;;;;;;5011801;28;20137;-31
2023/05/16 08:54:54;;;;;;;2.70;1.20;;;;;;;;;;5012167;28;20061;-31
2023/05/16 08:57:21;;;;;;;2.55;1.20;;;;;;;;;;5011934;28;20049;-31
2023/05/16 08:59:48;;;;;;;2.75;1.02;;;20.80;74.10;;;;;;5011927;28;20113;-31
2023/05/16 09:02:15;;;;;;;2.65;1.42;;;21.30;74.20;;;;;;5011689;28;20062;-31
2023/05/16 09:04:42;;;;;;;1.80;1.02;;;;;;;;;;5011301;28;20045;-31
2023/05/16 09:07:08;;;;;;;2.38;1.00;;;20.30;73.70;;;;;;5006524;28;20056;-31
2023/05/16 09:09:37;;;;;;;1.73;0.90;;;20.90;53.60;;;;;;5011672;28;20120;-31
2023/05/16 09:12:04;;;;;;;2.20;1.00;;;21.00;67.10;;;;;;5011367;28;20057;-31
2023/05/16 09:14:31;;;;;;;3.75;1.17;;;;;;;;;;5010844;28;20563;-31
2023/05/16 09:17:04;;;;;;;2.83;1.20;;;20.70;65.60;;;;;;5011177;28;20088;-31
2023/05/16 09:19:37;;;;;;;2.35;1.10;;;20.80;72.80;;;;;;5009169;28;20046;-31
2023/05/16 09:22:04;;;;;;;3.47;0.93;;;20.80;66.40;;;;;;5011257;28;20050;-31
2023/05/16 09:24:30;;;;;;;2.22;1.00;;;20.50;72.50;;;;;;5011252;28;20132;-31
2023/05/16 09:27:07;;;;;;;2.00;0.95;;;21.50;74.00;;;;;;5011108;28;20450;-31
2023/05/16 09:29:34;;;;;;;3.20;0.90;;;20.80;72.30;;;;;;5009457;28;20052;-31
2023/05/16 09:32:05;;;;;;;2.35;1.05;;;21.10;65.30;;;;;;5011193;28;20124;-31
2023/05/16 09:34:32;;;;;;;3.83;1.38;;;21.20;72.70;;;;;;5009051;28;20136;-31
2023/05/16 09:36:59;;;;;;;3.28;1.08;;;20.90;72.40;;;;;;5007731;28;20077;-31
2023/05/16 09:39:27;;;;;;;2.92;1.00;;;21.00;72.60;;;;;;5011267;28;20049;-31
2023/05/16 09:41:54;;;;;;;2.22;1.00;;;20.20;73.00;;;;;;5011057;28;20491;-31
2023/05/16 09:44:22;;;;;;;3.13;1.00;;;21.20;53.50;;;;;;5011831;28;20044;-31
2023/05/16 09:46:49;;;;;;;2.15;0.90;;;;;;;;;;5012590;28;20045;-31
2023/05/16 09:49:17;;;;;;;2.33;1.17;;;20.70;72.50;;;;;;5014609;28;20510;-31
2023/05/16 09:51:44;;;;;;;2.50;1.13;;;19.70;71.00;;;;;;5015119;28;20054;-31
2023/05/16 09:54:11;;;;;;;3.92;1.30;;;21.10;59.90;;;;;;5014750;28;20042;-31
2023/05/16 09:56:48;;;;;;;3.92;1.10;;;20.40;72.90;;;;;;5014568;28;20054;-31
2023/05/16 09:59:15;;;;;;;3.13;1.10;;;;;;;;;;5011712;28;20743;-31
2023/05/16 10:01:43;;;;;;;2.15;0.90;;;20.90;73.00;;;;;;5013515;28;20414;-31
2023/05/16 10:04:14;;;;;;;2.33;1.23;;;;;;;;;;5012190;28;20054;-30
2023/05/16 10:06:42;;;;;;;2.72;0.93;;;20.70;66.90;;;;;;5014412;28;20125;-31
2023/05/16 10:09:11;;;;;;;3.95;1.00;;;20.00;72.40;;;;;;5012506;28;20061;-31
2023/05/16 10:11:38;;;;;;;1.95;1.10;;;21.90;72.80;;;;;;4996212;28;20491;-31
2023/05/16 10:14:06;;;;;;;2.25;1.20;;;;;;;;;;5013605;28;20088;-31
2023/05/16 10:16:32;;;;;;;2.38;1.17;;;20.80;72.50;;;;;;5014296;28;20117;-31
2023/05/16 10:19:01;;;;;;;2.17;0.98;;;20.70;53.20;;;;;;5014022;28;20145;-31
2023/05/16 10:21:28;;;;;;;1.42;0.88;;;20.40;73.20;;;;;;5010246;28;20050;-31
2023/05/16 10:23:55;;;;;;;2.38;0.90;;;20.90;72.60;;;;;;5011029;28;20144;-31
2023/05/16 10:26:22;;;;;;;2.90;0.98;;;;;;;;;;4995873;28;20052;-31
2023/05/16 10:28:49;;;;;;;2.80;0.93;;;;;;;;;;5012800;28;20418;-31
2023/05/16 10:31:16;;;;;;;2.65;0.98;;;;;;;;;;5009137;28;20141;-31
2023/05/16 10:33:43;;;;;;;2.00;1.00;;;20.60;72.60;;;;;;5007319;28;20054;-31
2023/05/16 10:36:11;;;;;;;2.63;1.02;;;20.50;53.30;;;;;;5012901;28;20149;-30
2023/05/16 10:38:38;;;;;;;1.77;1.10;;;;;;;;;;5013070;28;20052;-30
2023/05/16 10:41:05;;;;;;;2.42;1.05;;;20.50;72.60;;;;;;5013604;28;20048;-31
2023/05/16 10:43:32;;;;;;;1.73;1.00;;;20.70;72.70;;;;;;5011155;28;20130;-31
2023/05/16 10:46:02;;;;;;;3.13;1.10;;;20.30;69.00;;;;;;5013142;28;20430;-31
2023/05/16 10:48:30;;;;;;;3.13;1.13;;;20.70;63.00;;;;;;5010766;28;20046;-31
2023/05/16 10:50:57;;;;;;;1.60;0.90;;;;;;;;;;5013190;28;20045;-30
2023/05/16 10:53:30;;;;;;;1.98;0.90;;;20.90;72.70;;;;;;5012753;28;20128;-31
2023/05/16 10:56:08;;;;;;;1.63;0.90;;;20.30;67.20;;;;;;5009687;28;20125;-31
2023/05/16 10:58:42;;;;;;;1.73;0.90;;;20.80;56.50;;;;;;5011262;28;20052;-31
2023/05/16 11:01:16;;;;;;;1.45;0.90;;;20.60;53.50;;;;;;5012954;28;20045;-30
2023/05/16 11:04:01;;;;;;;1.70;0.80;;;20.60;53.50;;;;;;5013211;28;20121;-31
2023/05/16 11:06:28;;;;;;;1.70;0.90;;;20.00;72.10;;;;;;5011018;28;20371;-31
2023/05/16 11:09:08;;;;;;;1.67;0.98;;;20.60;53.30;;;;;;5011300;28;20125;-30
2023/05/16 11:11:39;;;;;;;2.35;1.13;;;20.60;53.30;;;;;;5010571;28;20108;-31
2023/05/16 11:14:06;;;;;;;1.90;0.93;;;21.10;67.90;;;;;;5011636;28;20049;-31
2023/05/16 11:16:33;;;;;;;3.85;1.20;;;20.20;73.20;;;;;;5011721;28;20054;-31
2023/05/16 11:19:05;;;;;;;1.00;0.80;;;21.60;61.10;;;;;;5011490;28;20133;-31
2023/05/16 11:22:06;;;;;;;1.67;1.00;;;20.60;68.80;;;;;;5013058;28;20045;-31
2023/05/16 11:24:35;;;;;;;2.47;0.90;;;20.20;73.40;;;;;;5010008;28;20117;-31
2023/05/16 11:27:02;;;;;;;2.30;1.00;;;19.30;63.40;;;;;;5010948;28;20644;-31
2023/05/16 11:29:29;;;;;;;1.92;0.90;;;21.50;73.20;;;;;;5012578;28;20144;-31
2023/05/16 11:31:58;;;;;;;1.75;0.95;;;21.00;53.80;;;;;;5012391;28;20056;-30
2023/05/16 11:34:25;;;;;;;2.25;1.00;;;20.40;63.80;;;;;;5011874;28;20499;-31
2023/05/16 11:36:51;;;;;;;2.75;0.80;;;20.30;72.50;;;;;;4991954;28;20410;-31
2023/05/16 11:39:19;;;;;;;1.73;0.90;;;;;;;;;;5012944;28;20064;-31
2023/05/16 11:41:47;;;;;;;1.38;0.77;;;20.60;53.60;;;;;;5013139;28;20061;-30
2023/05/16 11:44:14;;;;;;;3.03;1.00;;;20.80;73.70;;;;;;5012552;28;20062;-31
2023/05/16 11:46:41;;;;;;;1.70;1.00;;;;;;;;;;5012894;28;20120;-31
2023/05/16 11:49:08;;;;;;;3.08;0.90;;;20.70;72.60;;;;;;5010791;28;20052;-31
2023/05/16 11:51:35;;;;;;;1.50;0.88;;;20.60;54.40;;;;;;5003832;28;20064;-31
2023/05/16 11:54:03;;;;;;;1.85;0.90;;;20.50;53.60;;;;;;5009918;28;20075;-31
2023/05/16 11:56:31;;;;;;;2.08;0.90;;;;;;;;;;5011448;28;20057;-31
2023/05/16 11:58:59;;;;;;;2.15;1.00;;;20.50;73.70;;;;;;5011330;28;20483;-30
2023/05/16 12:01:31;;;;;;;2.08;0.90;;;20.10;72.80;;;;;;5012672;28;20042;-31
2023/05/16 12:03:57;;;;;;;3.97;0.90;;;20.10;72.70;;;;;;5012225;28;20125;-30
2023/05/16 12:06:25;;;;;;;3.55;0.98;;;19.50;72.60;;;;;;5012519;28;20042;-31
2023/05/16 12:08:52;;;;;;;1.63;0.90;;;20.20;66.10;;;;;;5012578;28;20078;-31
2023/05/16 12:11:20;;;;;;;3.45;1.10;;;20.10;56.10;;;;;;5012249;28;20048;-30
2023/05/16 12:13:47;;;;;;;1.30;0.70;;;20.70;74.30;;;;;;5012411;28;20690;-31
2023/05/16 12:16:15;;;;;;;2.00;1.13;;;21.00;67.10;;;;;;5012416;28;20128;-30
2023/05/16 12:18:42;;;;;;;2.90;1.00;;;20.70;62.60;;;;;;5012312;28;20116;-30
2023/05/16 12:21:08;;;;;;;2.33;0.80;;;20.20;57.00;;;;;;4994795;28;20081;-31
2023/05/16 12:23:35;;;;;;;2.83;0.90;;;20.20;73.60;;;;;;5012056;28;20136;-31
2023/05/16 12:26:06;;;;;;;4.05;1.20;;;19.90;55.90;;;;;;5011688;28;20136;-30
2023/05/16 12:28:34;;;;;;;2.05;0.98;;;19.80;67.90;;;;;;5011897;28;20104;-31
2023/05/16 12:31:01;;;;;;;2.47;1.13;;;19.60;73.30;;;;;;5001793;28;20482;-31
2023/05/16 12:33:29;;;;;;;2.53;1.00;;;20.20;74.20;;;;;;5011524;28;20053;-31
2023/05/16 12:35:56;;;;;;;2.15;1.00;;;;;;;;;;5011744;28;20084;-30
2023/05/16 12:38:25;;;;;;;2.15;1.10;;;20.20;73.30;;;;;;5011928;28;20053;-31
2023/05/16 12:40:52;;;;;;;3.15;0.95;;;;;;;;;;5011670;28;20050;-31
2023/05/16 12:43:19;;;;;;;2.58;1.15;;;20.40;73.30;;;;;;5011190;28;20128;-31
2023/05/16 12:45:49;;;;;;;2.50;1.08;;;20.20;54.20;;;;;;5011988;28;20045;-31
2023/05/16 12:48:16;;;;;;;3.58;1.42;;;;;;;;;;4994466;28;20141;-30
2023/05/16 12:50:45;;;;;;;2.70;1.20;;;20.50;73.30;;;;;;5011718;28;20491;-31
2023/05/16 12:53:13;;;;;;;4.03;1.42;;;20.90;74.50;;;;;;5011771;28;20049;-31
2023/05/16 12:55:40;;;;;;;1.80;1.00;;;20.60;73.80;;;;;;5011917;28;20050;-31
2023/05/16 12:58:07;;;;;;;1.85;1.00;;;;;;;;;;5011345;28;20120;-30
2023/05/16 13:00:35;;;;;;;2.83;1.20;;;20.20;73.10;;;;;;5011888;28;20052;-31
2023/05/16 13:03:02;;;;;;;1.95;1.13;;;;;;;;;;5011610;28;20058;-31
2023/05/16 13:05:29;;;;;;;2.80;1.20;;;;;;;;;;5011535;28;20052;-30
2023/05/16 13:07:57;;;;;;;4.00;1.73;;;19.80;72.80;;;;;;5011757;28;20056;-31
2023/05/16 13:10:24;;;;;;;2.38;1.15;;;20.40;72.60;;;;;;5011685;28;20121;-31
2023/05/16 13:12:52;;;;;;;3.72;1.30;;;;;;;;;;5011203;28;20414;-30
2023/05/16 13:15:19;;;;;;;3.67;1.20;;;;;;;;;;5011849;28;20562;-30